Time,TemperatureF,DewpointF,PressureIn,WindDirection,WindDirectionDegrees,WindSpeedMPH,WindSpeedGustMPH,Humidity,HourlyPrecipIn,Conditions,Clouds,dailyrainin,SoftwareType,DateUTC
2013-02-17 00:01:00,42.1,12.1,30.03,NNW,338,0.0,3.6,29,-99.99,,,-99.99,WSDL version 423,2013-02-17 08:01:00,
2013-02-17 00:06:00,41.9,12.0,30.03,NNW,338,1.0,3.6,29,-99.99,,,-99.99,WSDL version 423,2013-02-17 08:06:00,
2013-02-17 00:11:00,41.7,11.8,30.03,NNW,338,0.0,3.6,29,-99.99,,,-99.99,WSDL version 423,2013-02-17 08:11:00,
2013-02-17 00:16:00,41.2,11.4,30.03,NNW,338,2.5,3.1,29,-99.99,,,-99.99,WSDL version 423,2013-02-17 08:16:00,
2013-02-17 00:21:00,41.0,11.4,30.03,NNW,338,0.7,3.1,30,-99.99,,,-99.99,WSDL version 423,2013-02-17 08:21:00,
2013-02-17 00:26:00,40.5,11.5,30.03,NNW,338,0.0,2.7,30,-99.99,,,-99.99,WSDL version 423,2013-02-17 08:26:00,
2013-02-17 00:31:00,40.2,11.3,30.03,NNW,338,0.0,2.2,30,-99.99,,,-99.99,WSDL version 423,2013-02-17 08:31:00,
2013-02-17 00:36:00,39.7,10.8,30.03,NNW,338,0.0,2.7,30,-99.99,,,-99.99,WSDL version 423,2013-02-17 08:36:00,
2013-02-17 00:41:00,39.5,10.6,30.03,NNW,338,0.0,2.7,30,-99.99,,,-99.99,WSDL version 423,2013-02-17 08:41:00,
2013-02-17 00:46:00,39.0,10.9,30.00,NNW,338,0.0,2.7,31,-99.99,,,-99.99,WSDL version 423,2013-02-17 08:46:00,
2013-02-17 00:51:00,39.3,11.2,30.00,NNW,338,0.7,2.7,31,-99.99,,,-99.99,WSDL version 423,2013-02-17 08:51:00,
2013-02-17 00:56:00,39.4,11.3,30.00,NNW,338,0.0,2.7,31,-99.99,,,-99.99,WSDL version 423,2013-02-17 08:56:00,
2013-02-17 01:01:00,39.6,11.4,30.00,NNW,338,2.2,3.1,31,-99.99,,,-99.99,WSDL version 423,2013-02-17 09:01:00,
2013-02-17 01:06:00,39.7,11.5,30.00,NNW,338,1.0,3.6,31,-99.99,,,-99.99,WSDL version 423,2013-02-17 09:06:00,
2013-02-17 01:11:00,39.6,11.4,30.00,NNW,338,0.0,3.6,31,-99.99,,,-99.99,WSDL version 423,2013-02-17 09:11:00,
2013-02-17 01:16:00,39.6,11.4,30.00,NNW,338,1.7,3.1,31,-99.99,,,-99.99,WSDL version 423,2013-02-17 09:16:00,
2013-02-17 01:21:00,39.1,11.0,30.00,NNW,338,0.0,3.1,31,-99.99,,,-99.99,WSDL version 423,2013-02-17 09:21:00,
2013-02-17 01:26:00,38.5,10.8,30.00,NNW,338,0.0,2.2,32,-99.99,,,-99.99,WSDL version 423,2013-02-17 09:26:00,
2013-02-17 01:31:00,38.1,10.8,30.00,NNW,338,1.0,3.6,32,-99.99,,,-99.99,WSDL version 423,2013-02-17 09:31:00,
2013-02-17 01:36:00,37.8,10.6,30.00,NNW,338,0.0,3.6,32,-99.99,,,-99.99,WSDL version 423,2013-02-17 09:36:00,
2013-02-17 01:41:00,37.2,10.4,30.00,NNW,338,0.0,3.1,33,-99.99,,,-99.99,WSDL version 423,2013-02-17 09:41:00,
2013-02-17 01:46:00,37.0,10.5,30.00,NNW,338,0.2,2.7,33,-99.99,,,-99.99,WSDL version 423,2013-02-17 09:46:00,
2013-02-17 01:51:00,36.6,10.2,30.00,NNW,338,0.0,3.1,33,-99.99,,,-99.99,WSDL version 423,2013-02-17 09:51:00,
2013-02-17 01:57:00,36.5,10.2,30.00,NNW,338,0.0,3.1,34,-99.99,,,-99.99,WSDL version 423,2013-02-17 09:57:00,
2013-02-17 02:02:00,36.6,10.3,30.00,NNW,338,0.0,2.2,34,-99.99,,,-99.99,WSDL version 423,2013-02-17 10:02:00,
2013-02-17 02:07:00,36.7,10.4,30.00,NNW,338,2.2,3.1,33,-99.99,,,-99.99,WSDL version 423,2013-02-17 10:07:00,
2013-02-17 02:12:00,37.1,10.6,30.00,NNW,338,2.4,3.6,33,-99.99,,,-99.99,WSDL version 423,2013-02-17 10:12:00,
2013-02-17 02:17:00,37.4,10.9,30.00,NNW,338,0.0,3.6,33,-99.99,,,-99.99,WSDL version 423,2013-02-17 10:17:00,
2013-02-17 02:22:00,37.4,10.9,30.00,NNW,338,0.3,2.7,33,-99.99,,,-99.99,WSDL version 423,2013-02-17 10:22:00,
2013-02-17 02:27:00,38.0,11.1,30.00,NW,315,1.0,3.1,32,-99.99,,,-99.99,WSDL version 423,2013-02-17 10:27:00,
2013-02-17 02:32:00,38.5,11.2,29.97,NW,315,2.4,3.1,32,-99.99,,,-99.99,WSDL version 423,2013-02-17 10:32:00,
2013-02-17 02:37:00,38.5,11.2,29.97,NW,315,0.0,3.1,32,-99.99,,,-99.99,WSDL version 423,2013-02-17 10:37:00,
2013-02-17 02:42:00,38.3,11.1,29.97,NW,315,0.0,2.7,32,-99.99,,,-99.99,WSDL version 423,2013-02-17 10:42:00,
2013-02-17 02:47:00,38.1,10.9,29.97,NW,315,0.0,2.7,32,-99.99,,,-99.99,WSDL version 423,2013-02-17 10:47:00,
2013-02-17 02:52:00,37.8,10.6,29.97,NW,315,0.0,2.7,32,-99.99,,,-99.99,WSDL version 423,2013-02-17 10:52:00,
2013-02-17 02:57:00,38.0,10.8,29.97,NW,315,0.0,2.2,32,-99.99,,,-99.99,WSDL version 423,2013-02-17 10:57:00,
2013-02-17 03:02:00,37.9,10.7,29.97,NW,315,1.2,2.7,32,-99.99,,,-99.99,WSDL version 423,2013-02-17 11:02:00,
2013-02-17 03:07:00,37.8,10.8,29.97,NW,315,0.0,2.7,33,-99.99,,,-99.99,WSDL version 423,2013-02-17 11:07:00,
2013-02-17 03:12:00,37.3,10.9,29.97,NW,315,0.0,2.2,33,-99.99,,,-99.99,WSDL version 423,2013-02-17 11:12:00,
2013-02-17 03:17:00,37.0,10.6,29.97,NW,315,0.0,2.2,33,-99.99,,,-99.99,WSDL version 423,2013-02-17 11:17:00,
2013-02-17 03:22:00,37.1,10.7,29.97,NW,315,0.8,3.1,33,-99.99,,,-99.99,WSDL version 423,2013-02-17 11:22:00,
2013-02-17 03:27:00,37.5,11.0,29.97,NW,315,1.9,4.5,33,-99.99,,,-99.99,WSDL version 423,2013-02-17 11:27:00,
2013-02-17 03:32:00,37.3,10.9,29.94,NW,315,1.7,4.9,33,-99.99,,,-99.99,WSDL version 423,2013-02-17 11:32:00,
2013-02-17 03:37:00,36.6,10.2,29.94,East,98,3.6,4.9,33,-99.99,,,-99.99,WSDL version 423,2013-02-17 11:37:00,
2013-02-17 03:42:00,35.8,9.5,29.94,SE,135,2.0,4.9,33,-99.99,,,-99.99,WSDL version 423,2013-02-17 11:42:00,
2013-02-17 03:47:00,35.7,9.8,29.94,SE,135,0.0,3.1,34,-99.99,,,-99.99,WSDL version 423,2013-02-17 11:47:00,
2013-02-17 03:52:00,35.7,10.1,29.94,WNW,295,1.5,6.3,34,-99.99,,,-99.99,WSDL version 423,2013-02-17 11:52:00,
2013-02-17 03:57:00,39.1,12.4,29.94,WNW,293,3.8,6.3,32,-99.99,,,-99.99,WSDL version 423,2013-02-17 11:57:00,
2013-02-17 04:03:00,41.3,13.7,29.94,WNW,293,3.2,4.9,32,-99.99,,,-99.99,WSDL version 423,2013-02-17 12:03:00,
2013-02-17 04:08:00,41.9,13.8,29.94,West,270,0.0,4.0,31,-99.99,,,-99.99,WSDL version 423,2013-02-17 12:08:00,
2013-02-17 04:13:00,41.8,13.3,29.94,NNE,15,3.9,5.8,31,-99.99,,,-99.99,WSDL version 423,2013-02-17 12:13:00,
2013-02-17 04:18:00,41.0,12.7,29.94,North,6,3.8,8.1,31,-99.99,,,-99.99,WSDL version 423,2013-02-17 12:18:00,
2013-02-17 04:23:00,42.1,13.3,29.94,NW,315,7.4,11.0,30,-99.99,,,-99.99,WSDL version 423,2013-02-17 12:23:00,
2013-02-17 04:28:00,44.5,15.0,29.94,WSW,253,4.3,11.0,30,-99.99,,,-99.99,WSDL version 423,2013-02-17 12:28:00,
2013-02-17 04:33:00,43.4,14.2,29.94,South,169,4.5,8.3,31,-99.99,,,-99.99,WSDL version 423,2013-02-17 12:33:00,
2013-02-17 04:38:00,41.4,13.0,29.94,South,180,0.0,6.3,31,-99.99,,,-99.99,WSDL version 423,2013-02-17 12:38:00,
2013-02-17 04:43:00,40.4,12.1,29.94,NNE,23,3.6,4.9,31,-99.99,,,-99.99,WSDL version 423,2013-02-17 12:43:00,
2013-02-17 04:49:00,38.4,11.1,29.94,North,358,3.5,5.4,32,-99.99,,,-99.99,WSDL version 423,2013-02-17 12:49:00,
2013-02-17 04:54:00,37.9,10.7,29.94,North,5,4.8,7.2,32,-99.99,,,-99.99,WSDL version 423,2013-02-17 12:54:00,
2013-02-17 04:59:00,37.7,10.8,29.94,North,3,3.3,7.2,33,-99.99,,,-99.99,WSDL version 423,2013-02-17 12:59:00,
2013-02-17 05:04:00,37.4,10.7,29.94,North,360,0.0,5.4,33,-99.99,,,-99.99,WSDL version 423,2013-02-17 13:04:00,
2013-02-17 05:09:00,37.1,10.6,29.94,North,360,0.0,3.6,33,-99.99,,,-99.99,WSDL version 423,2013-02-17 13:09:00,
2013-02-17 05:14:00,37.2,10.7,29.94,North,360,0.3,2.7,33,-99.99,,,-99.99,WSDL version 423,2013-02-17 13:14:00,
2013-02-17 05:19:00,37.5,11.0,29.94,NW,313,2.2,3.6,33,-99.99,,,-99.99,WSDL version 423,2013-02-17 13:19:00,
2013-02-17 05:24:00,37.5,11.0,29.94,SE,135,2.6,4.9,33,-99.99,,,-99.99,WSDL version 423,2013-02-17 13:24:00,
2013-02-17 05:29:00,36.8,10.3,29.94,SE,135,2.2,4.9,33,-99.99,,,-99.99,WSDL version 423,2013-02-17 13:29:00,
2013-02-17 05:34:00,36.1,9.9,29.94,East,98,1.9,4.0,34,-99.99,,,-99.99,WSDL version 423,2013-02-17 13:34:00,
2013-02-17 05:39:00,35.6,10.0,29.94,NNE,23,1.4,4.0,34,-99.99,,,-99.99,WSDL version 423,2013-02-17 13:39:00,
2013-02-17 05:44:00,35.6,10.0,29.94,ENE,65,2.9,7.6,34,-99.99,,,-99.99,WSDL version 423,2013-02-17 13:44:00,
2013-02-17 05:49:00,41.9,14.4,29.94,WSW,250,6.0,12.8,31,-99.99,,,-99.99,WSDL version 423,2013-02-17 13:49:00,
2013-02-17 05:54:00,47.7,17.7,29.94,SW,225,7.6,12.8,29,-99.99,,,-99.99,WSDL version 423,2013-02-17 13:54:00,
2013-02-17 05:59:00,50.2,18.5,29.94,WSW,243,6.3,12.8,28,-99.99,,,-99.99,WSDL version 423,2013-02-17 13:59:00,
2013-02-17 06:04:00,49.7,18.0,29.94,WSW,240,3.8,7.6,28,-99.99,,,-99.99,WSDL version 423,2013-02-17 14:04:00,
2013-02-17 06:09:00,47.6,16.6,29.94,North,8,4.9,7.2,29,-99.99,,,-99.99,WSDL version 423,2013-02-17 14:09:00,
2013-02-17 06:14:00,43.6,13.5,29.94,NNW,340,3.4,6.3,30,-99.99,,,-99.99,WSDL version 423,2013-02-17 14:14:00,
2013-02-17 06:19:00,42.4,13.2,29.94,WSW,240,2.0,6.3,30,-99.99,,,-99.99,WSDL version 423,2013-02-17 14:19:00,
2013-02-17 06:24:00,40.8,11.8,29.94,WNW,302,3.3,4.9,30,-99.99,,,-99.99,WSDL version 423,2013-02-17 14:24:00,
2013-02-17 06:29:00,39.0,10.5,29.94,North,5,3.4,5.8,31,-99.99,,,-99.99,WSDL version 423,2013-02-17 14:29:00,
2013-02-17 06:34:00,38.0,10.0,29.94,North,360,1.0,5.8,31,-99.99,,,-99.99,WSDL version 423,2013-02-17 14:34:00,
2013-02-17 06:39:00,37.1,9.7,29.94,North,360,0.0,4.0,32,-99.99,,,-99.99,WSDL version 423,2013-02-17 14:39:00,
2013-02-17 06:45:00,36.0,9.0,29.94,North,360,1.3,4.0,32,-99.99,,,-99.99,WSDL version 423,2013-02-17 14:45:00,
2013-02-17 06:50:00,35.7,8.7,29.94,North,360,0.0,4.0,32,-99.99,,,-99.99,WSDL version 423,2013-02-17 14:50:00,
2013-02-17 06:55:00,35.6,8.6,29.94,North,360,2.5,3.1,32,-99.99,,,-99.99,WSDL version 423,2013-02-17 14:55:00,
2013-02-17 07:00:00,35.8,8.9,29.94,NNW,338,1.0,3.6,32,-99.99,,,-99.99,WSDL version 423,2013-02-17 15:00:00,
2013-02-17 07:05:00,36.5,9.4,29.94,NNW,338,3.1,3.6,32,-99.99,,,-99.99,WSDL version 423,2013-02-17 15:05:00,
2013-02-17 07:10:00,37.7,10.5,29.94,SW,222,2.8,4.0,32,-99.99,,,-99.99,WSDL version 423,2013-02-17 15:10:00,
2013-02-17 07:15:00,39.9,12.1,29.94,South,175,2.2,4.0,32,-99.99,,,-99.99,WSDL version 423,2013-02-17 15:15:00,
2013-02-17 07:20:00,42.0,14.0,29.94,SSE,160,1.5,4.9,31,-99.99,,,-99.99,WSDL version 423,2013-02-17 15:20:00,
2013-02-17 07:25:00,40.2,11.9,29.94,NNW,346,3.6,5.8,31,-99.99,,,-99.99,WSDL version 423,2013-02-17 15:25:00,
2013-02-17 07:30:00,40.0,11.8,29.94,NNE,13,4.8,8.7,31,-99.99,,,-99.99,WSDL version 423,2013-02-17 15:30:00,
2013-02-17 07:35:00,40.3,12.0,29.94,NNW,343,5.4,8.7,31,-99.99,,,-99.99,WSDL version 423,2013-02-17 15:35:00,
2013-02-17 07:40:00,41.5,12.4,29.94,NNW,338,3.4,7.2,30,-99.99,,,-99.99,WSDL version 423,2013-02-17 15:40:00,
2013-02-17 07:45:00,42.7,13.4,29.94,NNW,338,2.8,5.8,30,-99.99,,,-99.99,WSDL version 423,2013-02-17 15:45:00,
2013-02-17 07:50:00,43.7,14.3,29.94,NNE,23,2.4,5.8,30,-99.99,,,-99.99,WSDL version 423,2013-02-17 15:50:00,
2013-02-17 07:55:00,45.2,14.9,29.94,NNE,23,0.0,4.9,29,-99.99,,,-99.99,WSDL version 423,2013-02-17 15:55:00,
2013-02-17 08:00:00,46.7,16.2,29.94,NNE,23,0.0,2.7,29,-99.99,,,-99.99,WSDL version 423,2013-02-17 16:00:00,
2013-02-17 08:05:00,48.1,16.8,29.94,NNE,23,0.0,2.7,28,-99.99,,,-99.99,WSDL version 423,2013-02-17 16:05:00,
2013-02-17 08:10:00,48.8,17.1,29.94,NNE,23,0.0,2.7,28,-99.99,,,-99.99,WSDL version 423,2013-02-17 16:10:00,
2013-02-17 08:15:00,49.9,17.7,29.94,NNE,23,0.0,2.2,27,-99.99,,,-99.99,WSDL version 423,2013-02-17 16:15:00,
2013-02-17 08:20:00,51.1,18.3,29.94,NNE,23,0.0,2.2,27,-99.99,,,-99.99,WSDL version 423,2013-02-17 16:20:00,
2013-02-17 08:26:00,50.5,17.8,29.94,NNE,23,1.6,4.0,27,-99.99,,,-99.99,WSDL version 423,2013-02-17 16:26:00,
2013-02-17 08:31:00,51.1,18.2,29.94,NNW,340,3.4,4.0,27,-99.99,,,-99.99,WSDL version 423,2013-02-17 16:31:00,
2013-02-17 08:36:00,50.8,18.0,29.94,NW,323,4.3,6.3,27,-99.99,,,-99.99,WSDL version 423,2013-02-17 16:36:00,
2013-02-17 08:41:00,51.5,18.6,29.94,WNW,301,5.0,6.3,27,-99.99,,,-99.99,WSDL version 423,2013-02-17 16:41:00,
2013-02-17 08:46:00,51.7,18.6,29.94,NW,318,4.5,6.3,26,-99.99,,,-99.99,WSDL version 423,2013-02-17 16:46:00,
2013-02-17 08:51:00,51.7,18.4,29.94,WNW,295,5.2,7.6,26,-99.99,,,-99.99,WSDL version 423,2013-02-17 16:51:00,
2013-02-17 08:56:00,52.1,18.3,29.94,WNW,295,5.5,7.6,26,-99.99,,,-99.99,WSDL version 423,2013-02-17 16:56:00,
2013-02-17 09:01:00,52.2,18.3,29.97,WNW,290,5.3,7.6,26,-99.99,,,-99.99,WSDL version 423,2013-02-17 17:01:00,
2013-02-17 09:06:00,52.3,18.5,29.97,WNW,287,5.9,6.3,26,-99.99,,,-99.99,WSDL version 423,2013-02-17 17:06:00,
2013-02-17 09:11:00,53.0,19.0,29.97,WNW,288,4.3,6.3,26,-99.99,,,-99.99,WSDL version 423,2013-02-17 17:11:00,
2013-02-17 09:16:00,53.3,19.3,29.97,WNW,293,4.3,7.2,26,-99.99,,,-99.99,WSDL version 423,2013-02-17 17:16:00,
2013-02-17 09:21:00,54.4,20.2,29.97,WNW,298,3.7,6.3,26,-99.99,,,-99.99,WSDL version 423,2013-02-17 17:21:00,
2013-02-17 09:26:00,55.1,20.7,29.97,WNW,295,3.3,5.4,25,-99.99,,,-99.99,WSDL version 423,2013-02-17 17:26:00,
2013-02-17 09:31:00,55.8,20.5,29.94,WNW,293,3.2,5.4,25,-99.99,,,-99.99,WSDL version 423,2013-02-17 17:31:00,
2013-02-17 09:36:00,56.7,21.3,29.94,West,278,2.5,5.4,25,-99.99,,,-99.99,WSDL version 423,2013-02-17 17:36:00,
2013-02-17 09:41:00,57.4,21.2,29.94,WNW,293,2.8,4.9,24,-99.99,,,-99.99,WSDL version 423,2013-02-17 17:41:00,
2013-02-17 09:46:00,58.7,22.2,29.94,West,270,0.4,4.9,24,-99.99,,,-99.99,WSDL version 423,2013-02-17 17:46:00,
2013-02-17 09:51:00,58.7,22.1,29.94,NW,315,1.6,4.0,24,-99.99,,,-99.99,WSDL version 423,2013-02-17 17:51:00,
2013-02-17 09:56:00,60.2,23.3,29.94,NW,315,0.9,4.0,24,-99.99,,,-99.99,WSDL version 423,2013-02-17 17:56:00,
2013-02-17 10:01:00,60.7,23.7,29.94,NW,315,2.5,4.0,24,-99.99,,,-99.99,WSDL version 423,2013-02-17 18:01:00,
2013-02-17 10:06:00,61.0,23.5,29.94,NW,315,1.4,4.0,23,-99.99,,,-99.99,WSDL version 423,2013-02-17 18:06:00,
2013-02-17 10:11:00,62.7,23.0,29.94,NW,321,1.8,4.9,21,-99.99,,,-99.99,WSDL version 423,2013-02-17 18:11:00,
2013-02-17 10:16:00,61.0,21.0,29.94,NNW,335,4.9,5.8,22,-99.99,,,-99.99,WSDL version 423,2013-02-17 18:16:00,
2013-02-17 10:22:00,60.7,21.0,29.94,North,8,3.1,5.8,21,-99.99,,,-99.99,WSDL version 423,2013-02-17 18:22:00,
2013-02-17 10:27:00,62.6,22.2,29.94,ENE,68,0.0,4.0,21,-99.99,,,-99.99,WSDL version 423,2013-02-17 18:27:00,
2013-02-17 10:32:00,64.3,23.0,29.94,ENE,68,1.1,3.1,20,-99.99,,,-99.99,WSDL version 423,2013-02-17 18:32:00,
2013-02-17 10:37:00,64.9,23.2,29.94,NNW,335,3.2,5.4,21,-99.99,,,-99.99,WSDL version 423,2013-02-17 18:37:00,
2013-02-17 10:42:00,64.8,23.2,29.94,NNE,23,0.0,5.4,20,-99.99,,,-99.99,WSDL version 423,2013-02-17 18:42:00,
2013-02-17 10:47:00,66.6,24.3,29.94,West,270,2.0,4.9,20,-99.99,,,-99.99,WSDL version 423,2013-02-17 18:47:00,
2013-02-17 10:52:00,67.0,24.7,29.94,SSW,193,1.9,4.9,20,-99.99,,,-99.99,WSDL version 423,2013-02-17 18:52:00,
2013-02-17 10:57:00,67.3,24.9,29.94,South,169,2.5,4.9,20,-99.99,,,-99.99,WSDL version 423,2013-02-17 18:57:00,
2013-02-17 11:02:00,67.3,21.0,29.94,SSW,197,3.0,5.4,17,-99.99,,,-99.99,WSDL version 423,2013-02-17 19:02:00,
2013-02-17 11:07:00,67.7,22.6,29.94,SE,135,2.1,5.4,20,-99.99,,,-99.99,WSDL version 423,2013-02-17 19:07:00,
2013-02-17 11:12:00,67.6,22.1,29.94,WNW,286,3.0,5.4,17,-99.99,,,-99.99,WSDL version 423,2013-02-17 19:12:00,
2013-02-17 11:17:00,66.7,20.5,29.94,NW,320,3.2,5.8,17,-99.99,,,-99.99,WSDL version 423,2013-02-17 19:17:00,
2013-02-17 11:22:00,66.9,20.7,29.94,NE,51,2.6,5.8,17,-99.99,,,-99.99,WSDL version 423,2013-02-17 19:22:00,
2013-02-17 11:27:00,68.3,21.8,29.94,East,96,1.1,5.8,17,-99.99,,,-99.99,WSDL version 423,2013-02-17 19:27:00,
2013-02-17 11:32:00,69.1,22.5,29.94,South,170,3.0,4.9,17,-99.99,,,-99.99,WSDL version 423,2013-02-17 19:32:00,
2013-02-17 11:37:00,68.6,22.1,29.94,ENE,74,2.8,5.4,17,-99.99,,,-99.99,WSDL version 423,2013-02-17 19:37:00,
2013-02-17 11:42:00,68.7,22.1,29.94,ENE,68,2.7,5.4,17,-99.99,,,-99.99,WSDL version 423,2013-02-17 19:42:00,
2013-02-17 11:47:00,69.3,22.6,29.94,ENE,78,3.9,5.4,17,-99.99,,,-99.99,WSDL version 423,2013-02-17 19:47:00,
2013-02-17 11:52:00,69.3,22.6,29.94,ENE,68,2.9,5.4,17,-99.99,,,-99.99,WSDL version 423,2013-02-17 19:52:00,
2013-02-17 11:57:00,69.1,22.5,29.94,ENE,75,2.8,4.5,17,-99.99,,,-99.99,WSDL version 423,2013-02-17 19:57:00,
2013-02-17 12:02:00,69.2,22.6,29.94,ENE,63,3.9,5.8,17,-99.99,,,-99.99,WSDL version 423,2013-02-17 20:02:00,
2013-02-17 12:07:00,68.8,22.3,29.94,NNE,23,3.4,5.8,17,-99.99,,,-99.99,WSDL version 423,2013-02-17 20:07:00,
2013-02-17 12:12:00,69.5,22.8,29.94,East,83,4.0,5.8,17,-99.99,,,-99.99,WSDL version 423,2013-02-17 20:12:00,
2013-02-17 12:18:00,70.4,23.5,29.94,ESE,113,0.5,5.4,17,-99.99,,,-99.99,WSDL version 423,2013-02-17 20:18:00,
2013-02-17 12:23:00,70.7,23.8,29.94,ENE,63,4.4,8.1,17,-99.99,,,-99.99,WSDL version 423,2013-02-17 20:23:00,
2013-02-17 12:28:00,70.1,23.3,29.94,ESE,113,3.7,8.1,17,-99.99,,,-99.99,WSDL version 423,2013-02-17 20:28:00,
2013-02-17 12:33:00,70.9,24.0,29.91,ENE,73,3.2,5.8,17,-99.99,,,-99.99,WSDL version 423,2013-02-17 20:33:00,
2013-02-17 12:38:00,70.3,23.4,29.91,ENE,62,3.4,5.8,17,-99.99,,,-99.99,WSDL version 423,2013-02-17 20:38:00,
2013-02-17 12:43:00,70.3,23.5,29.91,East,82,3.4,5.8,17,-99.99,,,-99.99,WSDL version 423,2013-02-17 20:43:00,
2013-02-17 12:49:00,71.6,23.6,29.91,SSW,203,3.8,6.3,16,-99.99,,,-99.99,WSDL version 423,2013-02-17 20:49:00,
2013-02-17 12:54:00,71.6,23.7,29.91,SE,130,3.3,6.3,16,-99.99,,,-99.99,WSDL version 423,2013-02-17 20:54:00,
2013-02-17 12:59:00,72.0,23.4,29.91,SE,145,2.9,5.4,16,-99.99,,,-99.99,WSDL version 423,2013-02-17 20:59:00,
2013-02-17 13:04:00,72.0,23.4,29.91,East,98,3.1,5.8,16,-99.99,,,-99.99,WSDL version 423,2013-02-17 21:04:00,
2013-02-17 13:10:00,71.9,23.3,29.91,SE,129,3.1,8.3,16,-99.99,,,-99.99,WSDL version 423,2013-02-17 21:10:00,
2013-02-17 13:15:00,71.9,23.8,29.91,NNE,20,3.4,8.3,17,-99.99,,,-99.99,WSDL version 423,2013-02-17 21:15:00,
2013-02-17 13:20:00,72.7,24.2,29.91,ESE,113,2.6,4.9,16,-99.99,,,-99.99,WSDL version 423,2013-02-17 21:20:00,
2013-02-17 13:25:00,73.4,24.6,29.91,ESE,120,3.5,4.9,16,-99.99,,,-99.99,WSDL version 423,2013-02-17 21:25:00,
2013-02-17 13:30:00,73.2,24.3,29.88,SSE,154,3.7,5.4,16,-99.99,,,-99.99,WSDL version 423,2013-02-17 21:30:00,
2013-02-17 13:35:00,73.1,24.3,29.88,SSE,168,4.0,8.1,16,-99.99,,,-99.99,WSDL version 423,2013-02-17 21:35:00,
2013-02-17 13:40:00,72.5,23.8,29.88,SE,125,4.7,8.1,16,-99.99,,,-99.99,WSDL version 423,2013-02-17 21:40:00,
2013-02-17 13:45:00,72.3,23.7,29.88,SE,129,2.5,7.2,16,-99.99,,,-99.99,WSDL version 423,2013-02-17 21:45:00,
2013-02-17 13:50:00,72.8,24.1,29.88,SSE,150,3.9,7.2,16,-99.99,,,-99.99,WSDL version 423,2013-02-17 21:50:00,
2013-02-17 13:55:00,72.6,23.9,29.88,SE,132,4.3,7.2,16,-99.99,,,-99.99,WSDL version 423,2013-02-17 21:55:00,
2013-02-17 14:00:00,72.4,23.7,29.88,South,186,3.4,7.2,16,-99.99,,,-99.99,WSDL version 423,2013-02-17 22:00:00,
2013-02-17 14:05:00,72.9,24.1,29.88,SSW,193,3.6,5.4,16,-99.99,,,-99.99,WSDL version 423,2013-02-17 22:05:00,
2013-02-17 14:10:00,73.2,24.4,29.88,East,79,3.2,5.4,16,-99.99,,,-99.99,WSDL version 423,2013-02-17 22:10:00,
2013-02-17 14:15:00,74.0,25.0,29.88,SSE,160,2.7,5.8,16,-99.99,,,-99.99,WSDL version 423,2013-02-17 22:15:00,
2013-02-17 14:21:00,73.0,24.2,29.88,East,85,6.6,8.7,16,-99.99,,,-99.99,WSDL version 423,2013-02-17 22:21:00,
2013-02-17 14:26:00,72.4,23.7,29.88,ENE,62,5.1,8.7,16,-99.99,,,-99.99,WSDL version 423,2013-02-17 22:26:00,
2013-02-17 14:31:00,72.8,24.1,29.88,ENE,73,3.8,10.1,16,-99.99,,,-99.99,WSDL version 423,2013-02-17 22:31:00,
2013-02-17 14:36:00,72.0,23.4,29.88,ENE,63,7.1,10.1,16,-99.99,,,-99.99,WSDL version 423,2013-02-17 22:36:00,
2013-02-17 14:41:00,71.6,24.0,29.88,NE,51,3.9,9.6,16,-99.99,,,-99.99,WSDL version 423,2013-02-17 22:41:00,
2013-02-17 14:46:00,72.0,23.4,29.88,East,79,5.6,8.1,16,-99.99,,,-99.99,WSDL version 423,2013-02-17 22:46:00,
2013-02-17 14:51:00,72.5,23.8,29.88,East,84,4.6,7.6,16,-99.99,,,-99.99,WSDL version 423,2013-02-17 22:51:00,
2013-02-17 14:56:00,71.9,23.6,29.88,East,87,4.4,8.7,16,-99.99,,,-99.99,WSDL version 423,2013-02-17 22:56:00,
2013-02-17 15:01:00,71.7,23.8,29.88,ENE,68,4.0,8.7,16,-99.99,,,-99.99,WSDL version 423,2013-02-17 23:01:00,
2013-02-17 15:06:00,72.1,23.5,29.88,ENE,76,4.6,7.2,16,-99.99,,,-99.99,WSDL version 423,2013-02-17 23:06:00,
2013-02-17 15:11:00,72.0,23.7,29.88,NE,53,5.7,8.1,17,-99.99,,,-99.99,WSDL version 423,2013-02-17 23:11:00,
2013-02-17 15:16:00,71.5,23.5,29.88,ENE,65,5.8,8.1,17,-99.99,,,-99.99,WSDL version 423,2013-02-17 23:16:00,
2013-02-17 15:21:00,71.5,23.7,29.88,ENE,73,5.0,8.1,16,-99.99,,,-99.99,WSDL version 423,2013-02-17 23:21:00,
2013-02-17 15:26:00,71.3,23.7,29.88,NE,55,6.2,9.6,17,-99.99,,,-99.99,WSDL version 423,2013-02-17 23:26:00,
2013-02-17 15:31:00,71.2,24.2,29.88,East,95,4.5,9.6,17,-99.99,,,-99.99,WSDL version 423,2013-02-17 23:31:00,
2013-02-17 15:36:00,71.7,23.6,29.88,ENE,58,4.5,9.6,16,-99.99,,,-99.99,WSDL version 423,2013-02-17 23:36:00,
2013-02-17 15:41:00,71.2,23.9,29.88,ENE,70,5.7,9.6,17,-99.99,,,-99.99,WSDL version 423,2013-02-17 23:41:00,
2013-02-17 15:46:00,70.8,23.9,29.88,ENE,75,6.1,8.1,17,-99.99,,,-99.99,WSDL version 423,2013-02-17 23:46:00,
2013-02-17 15:51:00,70.9,24.0,29.88,East,79,5.3,8.1,17,-99.99,,,-99.99,WSDL version 423,2013-02-17 23:51:00,
2013-02-17 15:56:00,70.6,23.7,29.88,NNE,20,4.3,7.6,17,-99.99,,,-99.99,WSDL version 423,2013-02-17 23:56:00,
2013-02-17 16:01:00,70.6,23.7,29.88,ENE,70,4.3,7.2,17,-99.99,,,-99.99,WSDL version 423,2013-02-18 00:01:00,
2013-02-17 16:06:00,70.7,23.8,29.88,NE,48,4.2,6.3,17,-99.99,,,-99.99,WSDL version 423,2013-02-18 00:06:00,
2013-02-17 16:12:00,70.7,23.8,29.88,NE,55,4.0,7.6,17,-99.99,,,-99.99,WSDL version 423,2013-02-18 00:12:00,
2013-02-17 16:17:00,70.5,23.6,29.88,NE,50,3.6,7.6,17,-99.99,,,-99.99,WSDL version 423,2013-02-18 00:17:00,
2013-02-17 16:22:00,70.0,23.2,29.88,ENE,61,6.3,9.2,17,-99.99,,,-99.99,WSDL version 423,2013-02-18 00:22:00,
2013-02-17 16:27:00,69.8,23.1,29.88,NE,53,5.7,9.2,17,-99.99,,,-99.99,WSDL version 423,2013-02-18 00:27:00,
2013-02-17 16:32:00,69.8,23.0,29.88,NE,45,4.5,8.7,17,-99.99,,,-99.99,WSDL version 423,2013-02-18 00:32:00,
2013-02-17 16:37:00,69.5,22.9,29.88,ENE,68,4.1,8.1,17,-99.99,,,-99.99,WSDL version 423,2013-02-18 00:37:00,
2013-02-17 16:42:00,69.2,22.6,29.88,NNE,33,4.9,11.0,17,-99.99,,,-99.99,WSDL version 423,2013-02-18 00:42:00,
2013-02-17 16:47:00,68.8,22.2,29.88,NE,56,4.8,11.0,17,-99.99,,,-99.99,WSDL version 423,2013-02-18 00:47:00,
2013-02-17 16:52:00,68.6,22.1,29.88,NE,56,5.4,9.6,17,-99.99,,,-99.99,WSDL version 423,2013-02-18 00:52:00,
2013-02-17 16:57:00,68.4,21.9,29.88,ENE,63,4.7,8.7,17,-99.99,,,-99.99,WSDL version 423,2013-02-18 00:57:00,
2013-02-17 17:02:00,68.1,21.6,29.88,ENE,62,3.9,8.7,17,-99.99,,,-99.99,WSDL version 423,2013-02-18 01:02:00,
2013-02-17 17:07:00,67.8,21.4,29.88,ENE,68,4.9,7.6,17,-99.99,,,-99.99,WSDL version 423,2013-02-18 01:07:00,
2013-02-17 17:12:00,67.3,21.0,29.88,ENE,68,5.4,10.1,17,-99.99,,,-99.99,WSDL version 423,2013-02-18 01:12:00,
2013-02-17 17:17:00,66.9,20.7,29.85,East,87,5.5,10.1,17,-99.99,,,-99.99,WSDL version 423,2013-02-18 01:17:00,
2013-02-17 17:22:00,66.5,20.4,29.85,ENE,68,3.0,8.3,17,-99.99,,,-99.99,WSDL version 423,2013-02-18 01:22:00,
2013-02-17 17:27:00,65.9,21.0,29.85,NNE,30,2.0,6.3,18,-99.99,,,-99.99,WSDL version 423,2013-02-18 01:27:00,
2013-02-17 17:32:00,65.6,21.0,29.88,NE,45,4.4,6.3,18,-99.99,,,-99.99,WSDL version 423,2013-02-18 01:32:00,
2013-02-17 17:37:00,65.4,20.8,29.88,NE,38,4.1,6.3,18,-99.99,,,-99.99,WSDL version 423,2013-02-18 01:37:00,
2013-02-17 17:42:00,65.0,20.5,29.88,ENE,68,0.3,6.3,18,-99.99,,,-99.99,WSDL version 423,2013-02-18 01:42:00,
2013-02-17 17:47:00,64.3,19.9,29.88,ESE,113,1.6,3.6,18,-99.99,,,-99.99,WSDL version 423,2013-02-18 01:47:00,
2013-02-17 17:52:00,63.6,19.3,29.88,ESE,113,2.5,4.0,18,-99.99,,,-99.99,WSDL version 423,2013-02-18 01:52:00,
2013-02-17 17:57:00,62.9,19.0,29.88,SE,135,2.5,4.9,19,-99.99,,,-99.99,WSDL version 423,2013-02-18 01:57:00,
2013-02-17 18:02:00,62.0,19.2,29.88,SSW,198,3.3,4.9,19,-99.99,,,-99.99,WSDL version 423,2013-02-18 02:02:00,
2013-02-17 18:07:00,61.2,20.6,29.88,SSW,210,4.2,7.2,21,-99.99,,,-99.99,WSDL version 423,2013-02-18 02:07:00,
2013-02-17 18:13:00,60.8,18.8,29.88,SSW,203,3.4,7.2,19,-99.99,,,-99.99,WSDL version 423,2013-02-18 02:13:00,
2013-02-17 18:18:00,60.5,18.0,29.88,SSW,203,4.9,6.7,19,-99.99,,,-99.99,WSDL version 423,2013-02-18 02:18:00,
2013-02-17 18:23:00,60.4,18.0,29.88,SW,230,5.8,8.1,19,-99.99,,,-99.99,WSDL version 423,2013-02-18 02:23:00,
2013-02-17 18:28:00,60.3,17.9,29.88,SW,228,4.5,9.6,19,-99.99,,,-99.99,WSDL version 423,2013-02-18 02:28:00,
2013-02-17 18:33:00,59.9,19.3,29.91,SW,235,5.6,9.6,22,-99.99,,,-99.99,WSDL version 423,2013-02-18 02:33:00,
2013-02-17 18:38:00,60.1,21.1,29.91,West,273,6.0,8.3,22,-99.99,,,-99.99,WSDL version 423,2013-02-18 02:38:00,
2013-02-17 18:43:00,60.3,21.3,29.91,SW,236,3.4,8.3,22,-99.99,,,-99.99,WSDL version 423,2013-02-18 02:43:00,
2013-02-17 18:48:00,59.7,20.8,29.91,SW,225,1.4,6.3,22,-99.99,,,-99.99,WSDL version 423,2013-02-18 02:48:00,
2013-02-17 18:53:00,59.0,22.3,29.91,SW,225,3.6,4.9,24,-99.99,,,-99.99,WSDL version 423,2013-02-18 02:53:00,
2013-02-17 18:58:00,58.3,22.3,29.91,SW,225,3.1,4.9,25,-99.99,,,-99.99,WSDL version 423,2013-02-18 02:58:00,
2013-02-17 19:03:00,57.6,22.1,29.91,SW,225,3.6,5.4,25,-99.99,,,-99.99,WSDL version 423,2013-02-18 03:03:00,
2013-02-17 19:08:00,57.3,21.8,29.91,SW,225,3.2,5.8,25,-99.99,,,-99.99,WSDL version 423,2013-02-18 03:08:00,
2013-02-17 19:13:00,57.4,22.4,29.91,SSW,203,4.4,5.8,26,-99.99,,,-99.99,WSDL version 423,2013-02-18 03:13:00,
2013-02-17 19:18:00,57.5,22.9,29.91,SSW,203,4.4,7.2,26,-99.99,,,-99.99,WSDL version 423,2013-02-18 03:18:00,
2013-02-17 19:23:00,57.3,22.8,29.91,SSW,203,3.8,6.3,26,-99.99,,,-99.99,WSDL version 423,2013-02-18 03:23:00,
2013-02-17 19:28:00,57.2,22.6,29.91,SSW,203,3.2,6.3,26,-99.99,,,-99.99,WSDL version 423,2013-02-18 03:28:00,
2013-02-17 19:33:00,57.1,22.9,29.91,SSW,203,4.1,6.7,26,-99.99,,,-99.99,WSDL version 423,2013-02-18 03:33:00,
2013-02-17 19:38:00,57.1,23.3,29.91,SSW,203,3.9,6.7,27,-99.99,,,-99.99,WSDL version 423,2013-02-18 03:38:00,
2013-02-17 19:43:00,57.0,23.4,29.91,SSW,203,4.1,6.3,27,-99.99,,,-99.99,WSDL version 423,2013-02-18 03:43:00,
2013-02-17 19:48:00,57.0,23.4,29.91,SSW,203,4.5,7.2,27,-99.99,,,-99.99,WSDL version 423,2013-02-18 03:48:00,
2013-02-17 19:53:00,57.1,22.9,29.91,SSW,211,4.3,7.2,27,-99.99,,,-99.99,WSDL version 423,2013-02-18 03:53:00,
2013-02-17 19:58:00,57.3,23.4,29.94,SSW,208,5.7,8.1,27,-99.99,,,-99.99,WSDL version 423,2013-02-18 03:58:00,
2013-02-17 20:03:00,57.2,23.6,29.94,SSW,203,5.3,8.1,27,-99.99,,,-99.99,WSDL version 423,2013-02-18 04:03:00,
2013-02-17 20:08:00,57.4,23.7,29.94,SSW,203,5.9,8.3,27,-99.99,,,-99.99,WSDL version 423,2013-02-18 04:08:00,
2013-02-17 20:13:00,57.6,23.9,29.94,SSW,208,5.4,8.3,27,-99.99,,,-99.99,WSDL version 423,2013-02-18 04:13:00,
2013-02-17 20:18:00,57.4,23.7,29.94,SSW,208,6.2,8.3,27,-99.99,,,-99.99,WSDL version 423,2013-02-18 04:18:00,
2013-02-17 20:23:00,57.3,23.6,29.94,SW,218,4.6,7.6,27,-99.99,,,-99.99,WSDL version 423,2013-02-18 04:23:00,
2013-02-17 20:28:00,57.2,23.5,29.94,SSW,205,4.9,8.1,27,-99.99,,,-99.99,WSDL version 423,2013-02-18 04:28:00,
2013-02-17 20:33:00,57.2,23.6,29.94,SW,217,5.0,11.0,27,-99.99,,,-99.99,WSDL version 423,2013-02-18 04:33:00,
2013-02-17 20:38:00,57.2,23.5,29.94,SSW,200,6.3,11.0,27,-99.99,,,-99.99,WSDL version 423,2013-02-18 04:38:00,
2013-02-17 20:44:00,57.2,23.5,29.94,SSW,203,6.3,8.7,27,-99.99,,,-99.99,WSDL version 423,2013-02-18 04:44:00,
2013-02-17 20:49:00,57.2,24.0,29.94,SSW,210,5.8,8.7,28,-99.99,,,-99.99,WSDL version 423,2013-02-18 04:49:00,
2013-02-17 20:54:00,57.1,24.3,29.94,SW,217,6.5,9.6,28,-99.99,,,-99.99,WSDL version 423,2013-02-18 04:54:00,
2013-02-17 20:59:00,57.2,24.1,29.94,SSW,213,6.8,10.1,28,-99.99,,,-99.99,WSDL version 423,2013-02-18 04:59:00,
2013-02-17 21:00:00,57.2,24.1,29.94,SW,220,7.4,10.1,28,-99.99,,,-99.99,WSDL version 423,2013-02-18 05:00:00,
2013-02-17 21:01:00,57.2,24.3,29.94,SW,217,6.9,10.1,28,-99.99,,,-99.99,WSDL version 423,2013-02-18 05:01:00,
2013-02-17 21:06:00,57.0,24.2,29.94,SSW,210,7.3,11.0,28,-99.99,,,-99.99,WSDL version 423,2013-02-18 05:06:00,
2013-02-17 21:07:00,56.9,24.2,29.94,SSW,210,7.1,11.0,28,-99.99,,,-99.99,WSDL version 423,2013-02-18 05:07:00,
2013-02-17 21:08:00,56.9,24.2,29.94,SW,219,6.2,11.0,28,-99.99,,,-99.99,WSDL version 423,2013-02-18 05:08:00,
2013-02-17 21:13:00,56.8,24.1,29.94,SW,217,7.2,11.0,28,-99.99,,,-99.99,WSDL version 423,2013-02-18 05:13:00,
2013-02-17 21:18:00,56.8,24.0,29.94,SW,223,7.4,11.0,28,-99.99,,,-99.99,WSDL version 423,2013-02-18 05:18:00,
2013-02-17 21:23:00,56.7,24.0,29.94,SSW,208,8.5,11.4,28,-99.99,,,-99.99,WSDL version 423,2013-02-18 05:23:00,
2013-02-17 21:28:00,56.8,24.0,29.94,SW,223,7.3,11.4,28,-99.99,,,-99.99,WSDL version 423,2013-02-18 05:28:00,
2013-02-17 21:33:00,56.8,24.1,29.94,SSW,213,7.9,11.0,28,-99.99,,,-99.99,WSDL version 423,2013-02-18 05:33:00,
2013-02-17 21:38:00,56.6,23.9,29.94,SSW,213,7.1,11.0,28,-99.99,,,-99.99,WSDL version 423,2013-02-18 05:38:00,
2013-02-17 21:43:00,56.2,23.8,29.94,SSW,213,7.1,11.0,29,-99.99,,,-99.99,WSDL version 423,2013-02-18 05:43:00,
2013-02-17 21:48:00,55.7,24.0,29.94,SW,218,6.8,11.0,29,-99.99,,,-99.99,WSDL version 423,2013-02-18 05:48:00,
2013-02-17 21:53:00,55.4,23.7,29.94,SW,219,6.3,11.0,29,-99.99,,,-99.99,WSDL version 423,2013-02-18 05:53:00,
2013-02-17 21:58:00,55.4,23.7,29.94,SW,217,6.4,10.5,29,-99.99,,,-99.99,WSDL version 423,2013-02-18 05:58:00,
2013-02-17 22:03:00,55.4,23.7,29.97,SSW,203,7.1,10.5,29,-99.99,,,-99.99,WSDL version 423,2013-02-18 06:03:00,
2013-02-17 22:08:00,55.2,24.3,29.97,SW,217,6.5,10.5,30,-99.99,,,-99.99,WSDL version 423,2013-02-18 06:08:00,
2013-02-17 22:13:00,55.3,24.1,29.97,SSW,208,8.0,11.0,29,-99.99,,,-99.99,WSDL version 423,2013-02-18 06:13:00,
2013-02-17 22:18:00,55.4,23.7,29.94,SSW,200,6.0,11.0,29,-99.99,,,-99.99,WSDL version 423,2013-02-18 06:18:00,
2013-02-17 22:23:00,55.3,24.0,29.94,SW,219,5.9,8.7,30,-99.99,,,-99.99,WSDL version 423,2013-02-18 06:23:00,
2013-02-17 22:28:00,55.2,24.3,29.94,SSW,210,5.9,8.7,30,-99.99,,,-99.99,WSDL version 423,2013-02-18 06:28:00,
2013-02-17 22:33:00,55.0,24.1,29.94,SW,214,6.7,8.7,30,-99.99,,,-99.99,WSDL version 423,2013-02-18 06:33:00,
2013-02-17 22:38:00,54.7,23.9,29.94,SSW,210,7.2,10.1,30,-99.99,,,-99.99,WSDL version 423,2013-02-18 06:38:00,
2013-02-17 22:43:00,54.5,23.7,29.94,SSW,208,6.3,10.1,30,-99.99,,,-99.99,WSDL version 423,2013-02-18 06:43:00,
2013-02-17 22:48:00,54.4,23.6,29.94,SW,215,6.4,10.1,30,-99.99,,,-99.99,WSDL version 423,2013-02-18 06:48:00,
2013-02-17 22:53:00,54.2,23.5,29.94,SSW,210,5.9,10.1,30,-99.99,,,-99.99,WSDL version 423,2013-02-18 06:53:00,
2013-02-17 22:58:00,54.2,23.5,29.97,SSW,197,5.1,10.1,30,-99.99,,,-99.99,WSDL version 423,2013-02-18 06:58:00,
2013-02-17 23:03:00,54.1,23.4,29.97,SW,225,4.7,9.6,30,-99.99,,,-99.99,WSDL version 423,2013-02-18 07:03:00,
2013-02-17 23:08:00,53.5,23.3,29.97,SSW,205,6.6,10.1,31,-99.99,,,-99.99,WSDL version 423,2013-02-18 07:08:00,
2013-02-17 23:13:00,53.2,23.4,29.97,SSW,208,6.9,10.1,31,-99.99,,,-99.99,WSDL version 423,2013-02-18 07:13:00,
2013-02-17 23:18:00,53.4,23.6,29.97,SW,217,6.7,10.1,31,-99.99,,,-99.99,WSDL version 423,2013-02-18 07:18:00,
2013-02-17 23:23:00,53.7,23.0,29.97,SW,215,6.8,9.6,30,-99.99,,,-99.99,WSDL version 423,2013-02-18 07:23:00,
2013-02-17 23:28:00,53.7,23.0,29.97,SSW,210,6.2,9.6,30,-99.99,,,-99.99,WSDL version 423,2013-02-18 07:28:00,
2013-02-17 23:33:00,53.7,23.0,29.97,SW,228,6.2,10.1,30,-99.99,,,-99.99,WSDL version 423,2013-02-18 07:33:00,
2013-02-17 23:38:00,53.6,23.0,29.97,SW,225,6.2,10.1,30,-99.99,,,-99.99,WSDL version 423,2013-02-18 07:38:00,
2013-02-17 23:43:00,53.6,22.9,29.97,SSW,203,5.3,8.7,30,-99.99,,,-99.99,WSDL version 423,2013-02-18 07:43:00,
2013-02-17 23:48:00,53.5,23.3,29.97,SSW,208,4.6,7.6,31,-99.99,,,-99.99,WSDL version 423,2013-02-18 07:48:00,
2013-02-17 23:53:00,53.5,23.3,29.97,SSW,211,5.3,7.2,31,-99.99,,,-99.99,WSDL version 423,2013-02-18 07:53:00,
2013-02-17 23:58:00,53.6,22.9,29.97,SSW,211,4.9,8.1,30,-99.99,,,-99.99,WSDL version 423,2013-02-18 07:58:00,